Time;durP1;ratioP1;P1;durP2;ratioP2;P2;SDS_P1;SDS_P2;PMS_P1;PMS_P2;Temp;Humidity;BMP_temperature;BMP_pressure;BME280_temperature;BME280_humidity;BME280_pressure;Samples;Min_cycle;Max_cycle;Signal;HPM_P1;HPM_P2
2023/03/07 00:00:11;;;;;;;16.73;10.05;;;5.80;99.90;;;;;;5037573;28;20056;-75
2023/03/07 00:02:37;;;;;;;14.38;9.63;;;6.10;99.90;;;;;;5029170;28;20049;-75
2023/03/07 00:05:03;;;;;;;12.68;8.77;;;5.60;99.90;;;;;;5039065;28;20086;-74
2023/03/07 00:07:30;;;;;;;12.75;8.55;;;5.60;99.90;;;;;;5063757;28;20144;-74
2023/03/07 00:09:57;;;;;;;12.52;7.88;;;5.50;99.90;;;;;;5082708;28;20053;-75
2023/03/07 00:12:22;;;;;;;;;;;6.20;99.90;;;;;;5079990;28;20040;-74
2023/03/07 00:14:48;;;;;;;10.05;6.50;;;5.50;99.90;;;;;;5059941;28;19981;-74
2023/03/07 00:17:14;;;;;;;9.43;5.80;;;6.20;99.90;;;;;;5069981;28;20150;-74
2023/03/07 00:19:43;;;;;;;8.57;5.28;;;5.60;99.90;;;;;;5034183;28;20049;-75
2023/03/07 00:22:10;;;;;;;8.80;4.45;;;5.60;99.90;;;;;;5027471;28;20126;-75
2023/03/07 00:24:36;;;;;;;8.20;4.15;;;6.00;99.90;;;;;;5063626;28;20089;-75
2023/03/07 00:27:02;;;;;;;8.48;3.40;;;5.50;99.90;;;;;;5073748;28;20148;-75
2023/03/07 00:29:28;;;;;;;8.02;3.70;;;5.80;99.90;;;;;;5045948;28;20044;-75
2023/03/07 00:31:53;;;;;;;9.50;3.60;;;6.10;99.90;;;;;;5040236;28;20048;-75
2023/03/07 00:34:19;;;;;;;7.47;3.35;;;5.50;99.90;;;;;;5042263;28;20041;-76
2023/03/07 00:36:45;;;;;;;5.95;2.53;;;6.10;99.90;;;;;;5036165;28;20132;-75
2023/03/07 00:39:11;;;;;;;6.75;2.65;;;5.60;99.90;;;;;;5043722;28;20482;-75
2023/03/07 00:41:36;;;;;;;5.85;2.80;;;6.20;99.90;;;;;;5027514;28;20109;-76
2023/03/07 00:44:02;;;;;;;5.63;3.08;;;5.50;99.90;;;;;;5050477;28;20044;-75
2023/03/07 00:46:28;;;;;;;8.00;2.90;;;5.50;99.90;;;;;;5086454;28;20048;-75
2023/03/07 00:48:54;;;;;;;6.68;2.53;;;5.50;99.90;;;;;;5039462;28;20053;-75
2023/03/07 00:51:22;;;;;;;5.65;2.40;;;6.20;99.90;;;;;;5072704;28;20051;-76
2023/03/07 00:53:48;;;;;;;6.05;2.70;;;5.90;99.90;;;;;;5035317;28;20062;-75
2023/03/07 00:56:25;;;;;;;6.13;2.45;;;6.20;99.90;;;;;;5018903;28;20037;-75
2023/03/07 00:58:51;;;;;;;6.68;2.60;;;5.60;99.90;;;;;;5067542;28;20482;-75
2023/03/07 01:01:20;;;;;;;7.65;2.42;;;6.30;99.90;;;;;;5054760;28;20076;-75
2023/03/07 01:03:53;;;;;;;7.20;2.30;;;6.10;99.90;;;;;;5042225;28;20088;-75
2023/03/07 01:06:21;;;;;;;7.25;2.30;;;5.70;99.90;;;;;;5022313;28;20072;-75
2023/03/07 01:08:47;;;;;;;6.25;2.03;;;6.40;99.90;;;;;;5049518;28;20156;-75
2023/03/07 01:11:13;;;;;;;7.82;2.05;;;6.30;99.90;;;;;;5054950;28;20152;-75
2023/03/07 01:13:39;;;;;;;10.18;1.90;;;6.40;99.90;;;;;;5052984;28;20044;-75
2023/03/07 01:16:11;;;;;;;12.07;1.90;;;6.20;99.90;;;;;;5041183;28;20075;-75
2023/03/07 01:18:37;;;;;;;10.15;1.58;;;5.90;99.90;;;;;;5032130;28;20464;-76
2023/03/07 01:21:20;;;;;;;9.35;2.00;;;5.90;99.90;;;;;;5029412;28;20181;-76
2023/03/07 01:23:46;;;;;;;9.73;1.55;;;5.90;99.90;;;;;;5035265;28;20492;-76
2023/03/07 01:26:14;;;;;;;10.02;1.45;;;6.00;99.90;;;;;;5068107;28;20048;-75
2023/03/07 01:28:40;;;;;;;10.20;1.92;;;5.80;99.90;;;;;;5070976;28;20063;-75
2023/03/07 01:31:05;;;;;;;8.95;1.40;;;6.10;99.90;;;;;;5040700;28;20126;-76
2023/03/07 01:33:31;;;;;;;9.80;1.77;;;5.80;99.90;;;;;;5051596;28;20479;-75
2023/03/07 01:35:57;;;;;;;9.52;1.33;;;5.70;99.90;;;;;;5051125;28;20048;-76
2023/03/07 01:38:22;;;;;;;8.25;1.75;;;5.70;99.90;;;;;;5043195;28;20469;-75
2023/03/07 01:40:49;;;;;;;16.77;2.22;;;5.90;99.90;;;;;;5053834;28;20044;-76
2023/03/07 01:43:25;;;;;;;7.53;1.55;;;5.90;99.90;;;;;;5041022;28;20098;-75
2023/03/07 01:46:16;;;;;;;8.60;1.13;;;5.50;99.90;;;;;;5047697;28;20352;-75
2023/03/07 01:48:47;;;;;;;10.50;1.50;;;5.70;99.90;;;;;;5034528;28;20042;-75
2023/03/07 01:51:13;;;;;;;10.52;1.70;;;5.30;99.90;;;;;;5049997;28;20032;-75
2023/03/07 01:53:39;;;;;;;9.10;1.42;;;5.30;99.90;;;;;;5052265;28;20044;-75
2023/03/07 01:56:07;;;;;;;8.18;1.25;;;5.20;99.90;;;;;;5058756;28;20044;-75
2023/03/07 01:58:35;;;;;;;9.15;1.40;;;5.00;99.90;;;;;;5037399;28;20049;-75
2023/03/07 02:01:01;;;;;;;9.90;1.50;;;5.00;99.90;;;;;;5059479;28;20032;-75
2023/03/07 02:03:37;;;;;;;11.07;1.58;;;4.90;99.90;;;;;;5070255;28;20114;-75
2023/03/07 02:06:08;;;;;;;8.90;1.23;;;4.80;99.90;;;;;;5065954;28;20083;-75
2023/03/07 02:08:35;;;;;;;6.75;1.02;;;4.70;99.90;;;;;;5064671;28;20080;-74
2023/03/07 02:11:01;;;;;;;7.82;1.10;;;4.70;99.90;;;;;;5047717;28;20036;-74
2023/03/07 02:13:27;;;;;;;10.70;1.60;;;4.40;99.90;;;;;;5053035;28;20184;-74
2023/03/07 02:15:53;;;;;;;8.23;1.33;;;4.50;99.90;;;;;;5047438;28;20049;-74
2023/03/07 02:18:24;;;;;;;8.07;1.30;;;4.30;99.90;;;;;;5036030;28;20668;-74
2023/03/07 02:20:56;;;;;;;9.38;1.17;;;4.30;99.90;;;;;;5050711;28;20067;-75
2023/03/07 02:23:29;;;;;;;6.97;1.27;;;4.40;99.90;;;;;;5025239;28;20154;-75
2023/03/07 02:25:58;;;;;;;9.63;1.00;;;4.30;99.90;;;;;;5053591;28;20190;-74
2023/03/07 02:28:24;;;;;;;7.97;1.38;;;4.30;99.90;;;;;;5052854;28;20048;-75
2023/03/07 02:31:04;;;;;;;11.55;1.27;;;4.30;99.90;;;;;;5053526;28;20493;-75
2023/03/07 02:33:30;;;;;;;8.48;1.40;;;4.20;99.90;;;;;;5024936;28;20447;-75
2023/03/07 02:36:09;;;;;;;6.47;1.02;;;4.30;99.90;;;;;;5039780;28;20468;-75
2023/03/07 02:38:38;;;;;;;11.48;1.48;;;4.30;99.90;;;;;;5045445;28;20467;-74
2023/03/07 02:41:05;;;;;;;7.38;1.13;;;4.10;99.90;;;;;;5049554;28;20059;-75
2023/03/07 02:43:31;;;;;;;10.05;1.20;;;4.20;99.90;;;;;;5066559;28;20127;-75
2023/03/07 02:45:57;;;;;;;7.60;1.13;;;4.10;99.90;;;;;;5066232;28;20124;-75
2023/03/07 02:48:23;;;;;;;9.23;1.35;;;4.10;99.90;;;;;;5049263;28;20431;-74
2023/03/07 02:50:48;;;;;;;8.30;0.80;;;4.10;99.90;;;;;;5061495;28;20048;-75
2023/03/07 02:53:14;;;;;;;5.32;0.98;;;4.00;99.90;;;;;;5041986;28;20076;-75
2023/03/07 02:55:40;;;;;;;7.03;0.95;;;4.00;99.90;;;;;;5054669;28;20368;-74
2023/03/07 02:58:06;;;;;;;5.90;1.38;;;3.90;99.90;;;;;;5034468;28;20041;-75
2023/03/07 03:00:32;;;;;;;9.65;1.42;;;3.90;99.90;;;;;;5061461;28;20044;-75
2023/03/07 03:02:57;;;;;;;13.18;1.77;;;3.90;99.90;;;;;;5045270;28;20044;-75
2023/03/07 03:05:23;;;;;;;8.25;1.20;;;3.90;99.90;;;;;;5060904;28;20119;-74
2023/03/07 03:07:49;;;;;;;5.00;0.90;;;3.80;99.90;;;;;;5056499;28;20057;-75
2023/03/07 03:10:16;;;;;;;7.50;1.10;;;3.80;99.90;;;;;;5084848;28;20507;-74
2023/03/07 03:12:41;;;;;;;9.38;1.48;;;3.70;99.90;;;;;;5054735;28;20127;-74
2023/03/07 03:15:08;;;;;;;8.63;2.83;;;3.70;99.90;;;;;;5062945;28;20186;-74
2023/03/07 03:17:33;;;;;;;10.45;1.45;;;3.80;99.90;;;;;;5049096;28;20283;-75
2023/03/07 03:19:59;;;;;;;5.83;0.83;;;3.70;99.90;;;;;;5040717;28;20088;-74
2023/03/07 03:22:24;;;;;;;7.68;1.02;;;3.70;99.90;;;;;;5055332;28;20295;-74
2023/03/07 03:24:50;;;;;;;7.72;1.15;;;3.60;99.90;;;;;;5052017;28;20339;-74
2023/03/07 03:27:16;;;;;;;6.55;1.05;;;3.60;99.90;;;;;;5050170;28;20040;-74
2023/03/07 03:29:41;;;;;;;13.68;1.33;;;3.60;99.90;;;;;;5051125;28;20390;-74
2023/03/07 03:32:07;;;;;;;5.90;1.20;;;3.60;99.90;;;;;;5041588;28;20039;-74
2023/03/07 03:34:33;;;;;;;9.20;1.30;;;3.60;99.90;;;;;;5032232;28;20308;-75
2023/03/07 03:36:59;;;;;;;9.05;1.13;;;3.60;99.90;;;;;;5059227;28;20585;-74
2023/03/07 03:39:24;;;;;;;6.85;1.20;;;3.60;99.90;;;;;;5057606;28;20047;-74
2023/03/07 03:41:50;;;;;;;8.05;1.17;;;3.50;99.90;;;;;;5064250;28;20086;-75
2023/03/07 03:44:16;;;;;;;7.07;1.10;;;3.50;99.90;;;;;;5067155;28;20056;-74
2023/03/07 03:46:41;;;;;;;7.45;1.40;;;3.40;99.90;;;;;;5062713;28;20043;-75
2023/03/07 03:49:10;;;;;;;8.57;1.08;;;3.40;99.90;;;;;;5061674;28;20550;-75
2023/03/07 03:51:35;;;;;;;5.75;1.10;;;3.40;99.90;;;;;;5047157;28;20044;-73
2023/03/07 03:54:01;;;;;;;5.00;1.20;;;3.30;99.90;;;;;;5066910;28;20048;-75
2023/03/07 03:56:27;;;;;;;9.77;1.20;;;3.30;99.90;;;;;;5068274;28;20385;-74
2023/03/07 03:58:55;;;;;;;6.82;1.10;;;3.40;99.90;;;;;;5068192;28;20111;-75
2023/03/07 04:01:24;;;;;;;9.32;1.20;;;3.40;99.90;;;;;;5053267;28;20046;-74
2023/03/07 04:03:51;;;;;;;10.93;1.20;;;3.40;99.90;;;;;;5056693;28;20040;-74
2023/03/07 04:06:19;;;;;;;11.05;1.30;;;3.40;99.90;;;;;;5072203;28;20080;-74
2023/03/07 04:08:45;;;;;;;8.60;1.10;;;3.40;99.90;;;;;;5064623;28;20059;-74
2023/03/07 04:11:12;;;;;;;8.10;1.55;;;3.30;99.90;;;;;;5068827;28;20056;-74
2023/03/07 04:13:37;;;;;;;12.90;1.30;;;3.30;99.90;;;;;;5054572;28;20044;-74
2023/03/07 04:16:04;;;;;;;8.65;1.00;;;3.20;99.90;;;;;;5073292;28;20140;-74
2023/03/07 04:18:29;;;;;;;8.27;1.17;;;3.30;99.90;;;;;;5071257;28;20083;-74
2023/03/07 04:20:55;;;;;;;5.22;0.73;;;3.30;99.90;;;;;;5037373;28;20148;-74
2023/03/07 04:23:23;;;;;;;6.97;1.00;;;3.30;99.90;;;;;;5052857;28;20063;-74
2023/03/07 04:25:55;;;;;;;8.60;1.00;;;3.30;99.90;;;;;;5071955;28;20517;-74
2023/03/07 04:28:23;;;;;;;5.95;1.73;;;3.30;99.90;;;;;;5068366;28;20044;-74
2023/03/07 04:30:48;;;;;;;10.52;1.10;;;3.30;99.90;;;;;;5054088;28;20036;-74
2023/03/07 04:33:15;;;;;;;7.07;1.27;;;3.30;99.90;;;;;;5071409;28;20093;-74
2023/03/07 04:35:41;;;;;;;8.00;1.20;;;3.30;99.90;;;;;;5043075;28;20045;-74
2023/03/07 04:38:08;;;;;;;5.88;1.17;;;3.30;99.90;;;;;;5070087;28;20070;-74
2023/03/07 04:40:34;;;;;;;6.85;0.90;;;3.30;99.90;;;;;;5072656;28;20040;-74
2023/03/07 04:43:00;;;;;;;6.75;1.27;;;3.30;99.90;;;;;;5070019;28;20071;-74
2023/03/07 04:45:26;;;;;;;8.52;1.25;;;3.30;99.90;;;;;;5070696;28;20052;-73
2023/03/07 04:47:54;;;;;;;8.80;1.27;;;3.30;99.90;;;;;;5066684;28;20040;-74
2023/03/07 04:50:20;;;;;;;4.17;1.13;;;3.40;99.90;;;;;;5087142;28;20041;-74
2023/03/07 04:52:46;;;;;;;10.23;1.40;;;3.40;99.90;;;;;;5053825;28;20424;-74
2023/03/07 04:55:12;;;;;;;8.40;1.05;;;3.40;99.90;;;;;;5087328;28;20086;-74
2023/03/07 04:57:37;;;;;;;9.13;1.33;;;3.40;99.90;;;;;;5053189;28;20482;-74
2023/03/07 05:00:08;;;;;;;6.57;1.00;;;3.40;99.90;;;;;;5069502;28;20051;-74
2023/03/07 05:02:34;;;;;;;6.35;1.25;;;3.40;99.90;;;;;;5069724;28;20054;-74
2023/03/07 05:05:00;;;;;;;7.30;1.20;;;3.40;99.90;;;;;;5070272;28;20388;-74
2023/03/07 05:07:26;;;;;;;7.97;1.20;;;3.40;99.90;;;;;;5071540;28;20036;-74
2023/03/07 05:09:52;;;;;;;6.20;1.10;;;3.50;99.90;;;;;;5057699;28;20060;-75
2023/03/07 05:12:17;;;;;;;11.77;1.60;;;3.50;99.90;;;;;;5092624;28;20396;-74
2023/03/07 05:14:43;;;;;;;7.90;1.60;;;3.60;99.90;;;;;;5065065;28;20127;-74
2023/03/07 05:17:09;;;;;;;5.07;1.10;;;3.60;99.90;;;;;;5054385;28;20044;-73
2023/03/07 05:19:34;;;;;;;7.07;1.05;;;3.60;99.90;;;;;;5051034;28;20071;-73
2023/03/07 05:22:01;;;;;;;12.20;1.40;;;3.60;99.90;;;;;;5053547;28;20148;-74
2023/03/07 05:24:27;;;;;;;;;;;3.60;99.90;;;;;;5069594;28;20446;-74
2023/03/07 05:26:52;;;;;;;6.32;1.20;;;3.60;99.90;;;;;;5057585;28;19963;-74
2023/03/07 05:29:18;;;;;;;7.50;1.40;;;3.60;99.90;;;;;;5046569;28;20080;-74
2023/03/07 05:31:43;;;;;;;6.10;1.00;;;3.60;99.90;;;;;;5063676;28;20868;-74
2023/03/07 05:34:09;;;;;;;8.20;1.15;;;3.60;99.90;;;;;;5043617;28;20125;-74
2023/03/07 05:36:35;;;;;;;6.75;1.25;;;3.60;99.90;;;;;;5067538;28;20044;-74
2023/03/07 05:39:01;;;;;;;4.70;0.98;;;3.60;99.90;;;;;;5049393;28;20036;-74
2023/03/07 05:41:27;;;;;;;7.18;1.20;;;3.60;99.90;;;;;;5047355;28;20097;-74
2023/03/07 05:43:54;;;;;;;5.63;1.13;;;3.60;99.90;;;;;;5049429;28;20055;-74
2023/03/07 05:46:20;;;;;;;6.32;1.13;;;3.50;99.90;;;;;;5057273;28;20089;-75
2023/03/07 05:48:46;;;;;;;7.13;1.10;;;3.60;99.90;;;;;;5046129;28;20040;-74
2023/03/07 05:51:11;;;;;;;7.25;1.05;;;3.50;99.90;;;;;;5048258;28;20381;-74
2023/03/07 05:53:37;;;;;;;3.63;0.55;;;3.50;99.90;;;;;;5058619;28;20344;-74
2023/03/07 05:56:03;;;;;;;4.68;1.30;;;3.50;99.90;;;;;;5061223;28;20051;-75
2023/03/07 05:58:29;;;;;;;10.20;1.13;;;3.40;99.90;;;;;;5046664;28;20082;-75
2023/03/07 06:00:54;;;;;;;3.42;1.20;;;3.40;99.90;;;;;;5040492;28;20048;-74
2023/03/07 06:03:20;;;;;;;3.35;0.60;;;3.50;99.90;;;;;;5035165;28;20127;-74
2023/03/07 06:05:49;;;;;;;6.90;1.10;;;3.50;99.90;;;;;;5028423;28;20754;-74
2023/03/07 06:08:15;;;;;;;4.50;0.77;;;3.50;99.90;;;;;;5075218;28;20483;-74
2023/03/07 06:10:41;;;;;;;7.07;1.10;;;3.50;99.90;;;;;;5050912;28;20075;-74
2023/03/07 06:13:29;;;;;;;7.70;1.15;;;3.50;99.90;;;;;;5022181;28;20041;-74
2023/03/07 06:15:56;;;;;;;5.70;0.80;;;3.50;99.90;;;;;;5038198;28;20071;-74
2023/03/07 06:18:22;;;;;;;;;;;3.50;99.90;;;;;;5037085;28;20367;-74
2023/03/07 06:21:01;;;;;;;3.20;0.65;;;3.50;99.90;;;;;;5053068;28;19967;-74
2023/03/07 06:23:29;;;;;;;7.45;1.00;;;3.50;99.90;;;;;;5052309;28;20044;-73
2023/03/07 06:25:55;;;;;;;8.35;1.00;;;3.50;99.90;;;;;;5060194;28;20139;-75
2023/03/07 06:28:21;;;;;;;5.68;1.00;;;3.50;99.90;;;;;;5068116;28;20123;-73
2023/03/07 06:30:48;;;;;;;4.05;1.02;;;3.50;99.90;;;;;;5039847;28;20507;-74
2023/03/07 06:33:14;;;;;;;4.88;1.30;;;3.50;99.90;;;;;;5050149;28;20431;-74
2023/03/07 06:35:42;;;;;;;5.55;0.93;;;3.50;99.90;;;;;;5049108;28;20263;-74
2023/03/07 06:38:09;;;;;;;4.88;0.90;;;3.50;99.90;;;;;;5051785;28;20526;-74
2023/03/07 06:40:35;;;;;;;8.02;1.13;;;3.60;99.90;;;;;;5071000;28;20048;-73
2023/03/07 06:43:01;;;;;;;3.92;0.80;;;3.50;99.90;;;;;;5051517;28;21656;-70
2023/03/07 06:45:26;;;;;;;4.47;0.90;;;3.50;99.90;;;;;;5045440;28;20530;-70
2023/03/07 06:47:52;;;;;;;4.57;1.63;;;3.50;99.90;;;;;;5049018;28;20044;-70
2023/03/07 06:50:18;;;;;;;6.97;0.95;;;3.50;99.90;;;;;;5041041;28;20090;-70
2023/03/07 06:52:44;;;;;;;7.47;1.00;;;3.50;99.90;;;;;;5060416;28;20043;-70
2023/03/07 06:55:10;;;;;;;6.72;0.90;;;3.50;99.90;;;;;;5048849;28;20044;-70
2023/03/07 06:57:36;;;;;;;3.42;0.70;;;3.50;99.90;;;;;;5043901;28;20037;-71
2023/03/07 07:00:04;;;;;;;8.68;1.20;;;3.50;99.90;;;;;;5044443;28;20047;-70
2023/03/07 07:02:30;;;;;;;6.60;1.08;;;3.50;99.90;;;;;;5048998;28;20528;-70
2023/03/07 07:04:57;;;;;;;2.00;0.50;;;3.50;99.90;;;;;;5058988;28;20527;-75
2023/03/07 07:07:23;;;;;;;2.47;0.70;;;3.50;99.90;;;;;;5028351;28;20048;-70
2023/03/07 07:09:49;;;;;;;;;;;3.50;99.90;;;;;;5060090;28;20255;-70
2023/03/07 07:12:14;;;;;;;2.70;0.50;;;3.50;99.90;;;;;;5043082;28;20055;-70
2023/03/07 07:14:40;;;;;;;4.03;0.88;;;3.50;99.90;;;;;;5039742;28;20048;-70
2023/03/07 07:17:06;;;;;;;4.25;0.65;;;3.50;99.90;;;;;;5059505;28;20025;-69
2023/03/07 07:19:32;;;;;;;3.42;0.73;;;3.50;99.90;;;;;;5046593;28;20040;-71
2023/03/07 07:21:58;;;;;;;4.30;0.60;;;3.40;99.90;;;;;;5062095;28;20475;-70
2023/03/07 07:24:24;;;;;;;3.92;0.60;;;3.50;99.90;;;;;;5064249;28;20051;-70
2023/03/07 07:26:50;;;;;;;2.00;0.50;;;3.40;99.90;;;;;;5062905;28;20789;-71
2023/03/07 07:29:15;;;;;;;1.33;0.40;;;3.40;99.90;;;;;;5062426;28;20052;-71
2023/03/07 07:31:41;;;;;;;1.98;0.50;;;3.40;99.90;;;;;;5063170;28;20295;-70
2023/03/07 07:34:07;;;;;;;4.13;0.60;;;3.40;99.90;;;;;;5058297;28;20048;-70
2023/03/07 07:36:33;;;;;;;2.95;0.50;;;3.50;99.90;;;;;;5063273;28;20086;-70
2023/03/07 07:39:04;;;;;;;4.95;0.80;;;3.50;99.90;;;;;;5058574;28;20051;-70
2023/03/07 07:41:31;;;;;;;4.38;0.70;;;3.50;99.90;;;;;;5062472;28;20059;-70
2023/03/07 07:43:57;;;;;;;5.68;0.80;;;3.50;99.90;;;;;;5060240;28;20044;-71
2023/03/07 07:46:23;;;;;;;2.60;0.73;;;3.50;99.90;;;;;;5065065;28;20049;-71
2023/03/07 07:48:49;;;;;;;4.05;0.70;;;3.50;99.90;;;;;;5061230;28;20391;-71
2023/03/07 07:51:15;;;;;;;3.67;0.68;;;3.60;99.90;;;;;;5063413;28;20110;-70
2023/03/07 07:53:41;;;;;;;9.10;0.90;;;3.50;99.90;;;;;;5062592;28;20150;-72
2023/03/07 07:56:07;;;;;;;8.13;1.05;;;3.60;99.90;;;;;;5061490;28;21750;-70
2023/03/07 07:58:33;;;;;;;5.03;0.95;;;3.60;99.90;;;;;;5064020;28;20033;-70
2023/03/07 08:00:59;;;;;;;3.00;0.63;;;3.60;99.90;;;;;;5059253;28;20054;-71
2023/03/07 08:03:24;;;;;;;4.43;0.73;;;3.60;99.90;;;;;;5044695;28;20134;-69
2023/03/07 08:05:50;;;;;;;4.72;0.90;;;3.70;99.90;;;;;;5049494;28;20060;-70
2023/03/07 08:08:18;;;;;;;4.78;0.85;;;3.70;99.90;;;;;;5067397;28;20060;-69
2023/03/07 08:10:46;;;;;;;3.58;0.90;;;3.70;99.90;;;;;;5063436;28;20044;-70
2023/03/07 08:13:13;;;;;;;2.80;0.70;;;3.70;99.90;;;;;;5068265;28;20056;-69
2023/03/07 08:15:39;;;;;;;5.55;0.88;;;3.80;99.90;;;;;;5068367;28;20063;-69
2023/03/07 08:18:05;;;;;;;6.47;0.98;;;3.80;99.90;;;;;;5055179;28;20032;-69
2023/03/07 08:20:31;;;;;;;5.22;0.75;;;3.80;99.90;;;;;;5056538;28;20471;-69
2023/03/07 08:22:56;;;;;;;2.50;0.52;;;3.90;99.90;;;;;;5062135;28;20124;-69
2023/03/07 08:25:23;;;;;;;5.23;0.70;;;3.90;99.90;;;;;;5051638;28;20045;-70
2023/03/07 08:27:53;;;;;;;5.20;0.90;;;4.00;99.90;;;;;;5068304;28;20279;-70
2023/03/07 08:30:24;;;;;;;4.30;0.70;;;4.00;99.90;;;;;;5057002;28;20041;-70
2023/03/07 08:32:51;;;;;;;6.07;1.00;;;4.00;99.90;;;;;;5051344;28;20056;-69
2023/03/07 08:35:19;;;;;;;5.50;1.13;;;4.00;99.90;;;;;;5065207;28;20155;-70
2023/03/07 08:37:45;;;;;;;5.97;1.20;;;3.90;99.90;;;;;;5069655;28;20044;-70
2023/03/07 08:40:12;;;;;;;4.80;1.10;;;3.90;99.90;;;;;;5040565;28;20044;-70
2023/03/07 08:42:37;;;;;;;5.45;0.90;;;3.80;99.90;;;;;;5035488;28;20418;-70
2023/03/07 08:45:03;;;;;;;5.07;0.97;;;3.80;99.90;;;;;;5066139;28;20044;-70
2023/03/07 08:47:29;;;;;;;4.78;0.90;;;3.80;99.90;;;;;;5071345;28;20321;-70
2023/03/07 08:49:55;;;;;;;4.60;1.10;;;3.80;99.90;;;;;;5061307;28;20132;-70
2023/03/07 08:52:20;;;;;;;3.72;0.63;;;3.90;99.90;;;;;;5071766;28;20101;-70
2023/03/07 08:54:46;;;;;;;6.70;1.10;;;4.00;99.90;;;;;;5069881;28;20357;-70
2023/03/07 08:57:12;;;;;;;3.25;0.73;;;3.90;99.90;;;;;;5065502;28;20033;-70
2023/03/07 08:59:37;;;;;;;5.57;0.93;;;3.90;99.90;;;;;;5085636;28;20039;-71
2023/03/07 09:02:03;;;;;;;4.63;0.70;;;3.70;99.90;;;;;;5071579;28;20565;-70
2023/03/07 09:04:29;;;;;;;5.63;0.90;;;3.80;99.90;;;;;;5053455;28;20629;-70
2023/03/07 09:06:55;;;;;;;5.28;0.80;;;3.80;99.90;;;;;;5063274;28;20051;-70
2023/03/07 09:09:21;;;;;;;5.68;1.20;;;3.70;99.90;;;;;;5064360;28;20113;-70
2023/03/07 09:11:47;;;;;;;3.67;0.77;;;3.70;99.90;;;;;;5066622;28;20072;-70
2023/03/07 09:14:13;;;;;;;4.07;1.10;;;3.70;99.90;;;;;;5070394;28;20076;-70
2023/03/07 09:16:39;;;;;;;3.85;0.73;;;3.70;99.90;;;;;;5071303;28;20033;-70
2023/03/07 09:19:04;;;;;;;5.72;1.00;;;3.60;99.90;;;;;;5067377;28;20087;-70
2023/03/07 09:21:31;;;;;;;5.20;1.20;;;3.60;99.90;;;;;;5049854;28;20044;-71
2023/03/07 09:23:56;;;;;;;4.05;0.68;;;3.70;99.90;;;;;;5072408;28;20045;-71
2023/03/07 09:26:22;;;;;;;3.42;1.17;;;3.70;99.90;;;;;;5069423;28;20046;-71
2023/03/07 09:28:48;;;;;;;4.97;0.75;;;3.80;99.90;;;;;;5061909;28;20036;-70
2023/03/07 09:31:14;;;;;;;2.92;0.73;;;3.80;99.90;;;;;;5047335;28;20048;-71
2023/03/07 09:33:40;;;;;;;;;;;3.80;99.90;;;;;;5071345;28;20063;-71
2023/03/07 09:36:09;;;;;;;3.83;0.80;;;3.80;99.90;;;;;;5039907;28;19924;-70
2023/03/07 09:38:36;;;;;;;5.22;0.93;;;3.80;99.90;;;;;;5062467;28;20112;-71
2023/03/07 09:41:41;;;;;;;3.13;0.85;;;3.80;99.90;;;;;;5063952;28;20040;-70
2023/03/07 09:44:34;;;;;;;6.20;1.38;;;3.80;99.90;;;;;;5029327;28;20059;-71
2023/03/07 09:47:37;;;;;;;5.78;1.02;;;3.70;99.90;;;;;;5061551;28;20135;-71
2023/03/07 09:50:12;;;;;;;3.25;0.68;;;3.80;99.90;;;;;;5063537;28;20059;-71
2023/03/07 09:52:40;;;;;;;4.72;0.93;;;3.70;99.90;;;;;;5070384;28;20044;-71
2023/03/07 09:55:14;;;;;;;3.65;0.80;;;3.70;99.90;;;;;;5061948;28;20114;-70
2023/03/07 09:57:42;;;;;;;5.45;1.00;;;3.70;99.90;;;;;;5069955;28;20498;-69
2023/03/07 10:00:14;;;;;;;4.35;0.80;;;3.70;99.90;;;;;;5066838;28;20044;-70
2023/03/07 10:02:58;;;;;;;4.88;0.95;;;3.80;99.90;;;;;;5053472;28;20044;-69
2023/03/07 10:05:44;;;;;;;7.53;1.10;;;3.80;99.90;;;;;;5057998;28;20458;-70
2023/03/07 10:08:17;;;;;;;4.82;1.00;;;3.80;99.90;;;;;;5054247;28;20147;-71
2023/03/07 10:10:46;;;;;;;5.07;0.73;;;3.80;99.90;;;;;;5064537;28;20411;-71
2023/03/07 10:13:34;;;;;;;5.53;1.00;;;3.80;99.90;;;;;;5071577;28;20047;-70
2023/03/07 10:16:30;;;;;;;7.45;1.00;;;3.80;99.90;;;;;;5055403;28;20449;-70
2023/03/07 10:19:29;;;;;;;4.60;0.82;;;4.00;99.90;;;;;;5070223;28;20046;-70
2023/03/07 10:22:13;;;;;;;6.00;0.80;;;4.10;99.90;;;;;;5070196;28;20040;-70
2023/03/07 10:25:08;;;;;;;5.53;0.80;;;4.10;99.90;;;;;;5058245;28;20249;-70
2023/03/07 10:27:34;;;;;;;4.22;0.93;;;4.20;99.90;;;;;;5042608;28;20049;-70
2023/03/07 10:30:07;;;;;;;6.38;1.67;;;4.20;99.90;;;;;;5064167;28;20468;-70
2023/03/07 10:32:36;;;;;;;6.82;1.20;;;4.10;99.90;;;;;;5064526;28;20048;-71
2023/03/07 10:35:19;;;;;;;5.63;1.08;;;4.10;99.90;;;;;;5062234;28;20045;-70
2023/03/07 10:37:54;;;;;;;3.05;0.90;;;4.20;99.90;;;;;;5066792;28;20108;-70
2023/03/07 10:40:25;;;;;;;4.45;0.98;;;4.20;99.90;;;;;;5064170;28;20048;-70
2023/03/07 10:42:52;;;;;;;6.07;1.40;;;4.20;99.90;;;;;;5068740;28;20475;-70
2023/03/07 10:45:18;;;;;;;6.40;1.17;;;4.20;99.90;;;;;;5060175;28;20051;-69
2023/03/07 10:47:44;;;;;;;7.13;1.20;;;4.20;99.90;;;;;;5060487;28;20045;-70
2023/03/07 10:50:36;;;;;;;5.18;0.80;;;4.30;99.90;;;;;;5048050;28;20388;-70
2023/03/07 10:53:03;;;;;;;6.45;1.42;;;4.30;99.90;;;;;;5062246;28;20041;-70
2023/03/07 10:55:36;;;;;;;7.05;1.15;;;4.40;99.90;;;;;;5063256;28;20040;-70
2023/03/07 10:58:20;;;;;;;5.05;1.10;;;4.50;99.90;;;;;;5065943;28;20554;-70
2023/03/07 11:00:58;;;;;;;6.63;1.42;;;4.50;99.90;;;;;;5066164;28;20040;-70
2023/03/07 11:03:42;;;;;;;3.72;0.88;;;4.60;99.90;;;;;;5070555;28;20043;-71
2023/03/07 11:06:26;;;;;;;6.47;1.23;;;4.70;99.90;;;;;;5055559;28;20124;-71
2023/03/07 11:08:52;;;;;;;4.80;1.13;;;4.70;99.90;;;;;;5068552;28;20064;-71
2023/03/07 11:11:31;;;;;;;9.00;1.23;;;4.70;99.90;;;;;;5052923;28;20051;-71
2023/03/07 11:14:10;;;;;;;4.63;0.88;;;4.90;99.90;;;;;;5054000;28;20048;-70
2023/03/07 11:16:53;;;;;;;4.68;0.98;;;5.00;99.90;;;;;;5048537;28;20032;-71
2023/03/07 11:19:43;;;;;;;8.93;1.45;;;5.10;99.90;;;;;;5065413;28;20399;-70
2023/03/07 11:22:35;;;;;;;5.50;1.00;;;5.30;99.90;;;;;;5059229;28;20129;-71
2023/03/07 11:25:15;;;;;;;7.50;1.30;;;5.50;99.90;;;;;;5068814;28;20048;-69
2023/03/07 11:27:44;;;;;;;7.47;1.20;;;6.00;99.90;;;;;;5067765;28;20473;-70
2023/03/07 11:30:26;;;;;;;4.82;1.10;;;6.20;99.90;;;;;;5068264;28;20064;-70
2023/03/07 11:33:07;;;;;;;3.53;0.93;;;6.20;99.90;;;;;;5069184;28;20060;-71
2023/03/07 11:35:49;;;;;;;4.30;0.77;;;5.50;99.90;;;;;;5070145;28;20146;-71
2023/03/07 11:38:24;;;;;;;6.95;1.27;;;4.60;99.90;;;;;;5068971;28;20049;-70
2023/03/07 11:41:14;;;;;;;4.50;1.30;;;3.90;99.90;;;;;;5068726;28;20044;-70
2023/03/07 11:43:55;;;;;;;2.45;0.55;;;3.30;99.90;;;;;;5070193;28;20116;-71
2023/03/07 11:46:23;;;;;;;2.13;0.65;;;3.30;99.90;;;;;;5069005;28;20045;-70
2023/03/07 11:49:06;;;;;;;5.25;0.80;;;3.40;99.90;;;;;;5068700;28;20044;-70
2023/03/07 11:51:44;;;;;;;5.32;0.90;;;3.50;99.90;;;;;;5070163;28;20414;-70
2023/03/07 11:54:37;;;;;;;6.93;0.95;;;3.50;99.90;;;;;;5068435;28;20049;-70
2023/03/07 11:57:37;;;;;;;6.82;0.88;;;3.40;99.90;;;;;;5068659;28;20556;-70
2023/03/07 12:00:25;;;;;;;5.00;0.80;;;3.50;99.90;;;;;;5068588;28;20062;-70
2023/03/07 12:03:03;;;;;;;3.65;0.68;;;4.20;99.90;;;;;;5068394;28;20123;-70
2023/03/07 12:05:51;;;;;;;5.65;1.70;;;4.70;99.90;;;;;;5069106;28;20135;-70
2023/03/07 12:08:50;;;;;;;6.53;0.82;;;5.20;99.90;;;;;;5069867;28;20521;-71
2023/03/07 12:11:45;;;;;;;4.47;0.60;;;5.70;99.90;;;;;;5070055;28;20123;-71
2023/03/07 12:14:51;;;;;;;4.30;0.98;;;6.00;99.90;;;;;;5008311;28;20454;-71
2023/03/07 12:17:39;;;;;;;4.90;0.95;;;6.20;99.90;;;;;;5005905;28;20483;-72
2023/03/07 12:20:05;;;;;;;4.32;0.80;;;6.20;89.00;;;;;;5051490;28;20101;-72
2023/03/07 12:23:06;;;;;;;3.60;0.88;;;6.60;90.40;;;;;;5038511;28;20173;-70
2023/03/07 12:25:37;;;;;;;3.80;0.82;;;6.90;78.70;;;;;;5055692;28;20079;-71
2023/03/07 12:28:22;;;;;;;3.90;1.33;;;7.10;73.90;;;;;;5073599;28;20048;-71
2023/03/07 12:30:56;;;;;;;3.90;0.77;;;6.80;34.30;;;;;;5055658;28;20067;-72
2023/03/07 12:33:38;;;;;;;4.78;0.77;;;6.70;21.20;;;;;;5055808;28;20752;-71
2023/03/07 12:36:16;;;;;;;4.20;0.98;;;6.80;1.00;;;;;;5055294;28;20112;-71
2023/03/07 12:38:46;;;;;;;6.63;0.80;;;6.70;1.00;;;;;;5038610;28;20048;-70
2023/03/07 12:41:40;;;;;;;5.45;1.00;;;6.50;1.00;;;;;;5055243;28;20074;-70
2023/03/07 12:44:20;;;;;;;2.78;0.60;;;6.30;1.00;;;;;;5055107;28;20075;-70
2023/03/07 12:46:55;;;;;;;5.70;0.57;;;6.20;1.00;;;;;;5055179;28;20094;-70
2023/03/07 12:49:40;;;;;;;3.85;0.90;;;5.90;1.00;;;;;;5055358;28;20044;-70
2023/03/07 12:52:23;;;;;;;4.07;0.70;;;5.70;1.00;;;;;;5038412;28;20124;-70
2023/03/07 12:54:57;;;;;;;2.60;0.80;;;5.50;1.00;;;;;;5055331;28;20052;-70
2023/03/07 12:57:39;;;;;;;3.28;0.70;;;5.70;1.00;;;;;;5054859;28;20036;-71
2023/03/07 13:00:07;;;;;;;2.38;0.60;;;6.10;1.00;;;;;;5054758;28;20044;-70
2023/03/07 13:02:42;;;;;;;1.40;0.55;;;6.60;1.00;;;;;;5054662;28;20048;-69
2023/03/07 13:05:18;;;;;;;5.90;0.60;;;7.20;1.00;;;;;;5054677;28;20040;-70
2023/03/07 13:07:45;;;;;;;3.38;0.80;;;7.00;1.00;;;;;;5055561;28;20468;-69
2023/03/07 13:10:17;;;;;;;4.43;0.80;;;6.70;1.00;;;;;;5037895;28;20086;-70
2023/03/07 13:12:43;;;;;;;3.67;0.82;;;6.30;1.00;;;;;;5054701;28;20529;-70